createdAt,value
2019-03-16T05:00:30.572Z,6
2019-03-16T05:03:58.434Z,12
2019-03-16T05:07:26.313Z,21
2019-03-16T05:10:54.179Z,35
2019-03-16T05:14:23.049Z,59
2019-03-16T05:17:50.925Z,84
2019-03-16T05:21:18.781Z,139
2019-03-16T05:24:46.665Z,199
2019-03-16T05:28:14.541Z,240
2019-03-16T05:31:42.415Z,296
2019-03-16T05:40:10.118Z,532
2019-03-16T05:43:38.013Z,590
2019-03-16T05:47:05.872Z,721
2019-03-16T05:50:33.751Z,873
2019-03-16T05:54:01.642Z,1011
2019-03-16T05:57:29.504Z,1089
2019-03-16T06:00:57.451Z,1263
2019-03-16T06:04:25.350Z,1100
2019-03-16T06:07:54.632Z,1253
2019-03-16T06:11:22.507Z,1475
2019-03-16T06:14:50.404Z,1643
2019-03-16T06:18:19.277Z,2077
2019-03-16T06:21:47.169Z,1981
2019-03-16T06:25:15.051Z,1976
2019-03-16T06:28:44.032Z,2000
2019-03-16T06:32:11.888Z,2333
2019-03-16T06:35:40.110Z,2212
2019-03-16T06:39:08.522Z,2336
2019-03-16T06:43:36.400Z,1508
2019-03-16T06:47:04.852Z,1466
2019-03-16T06:50:33.341Z,1540
2019-03-16T06:54:01.691Z,1820
2019-03-16T06:57:30.078Z,1768
2019-03-16T07:00:58.507Z,1821
2019-03-16T07:04:26.942Z,2038
2019-03-16T07:07:55.423Z,2124
2019-03-16T07:11:23.828Z,2404
2019-03-16T07:15:12.514Z,2497
2019-03-16T07:18:40.787Z,3048
2019-03-16T07:22:08.987Z,2892
2019-03-16T07:25:37.332Z,3130
2019-03-16T07:29:06.666Z,3829
2019-03-16T07:32:35.033Z,4197
2019-03-16T07:36:04.362Z,3645
2019-03-16T07:39:32.937Z,3909
2019-03-16T07:43:02.585Z,4297
2019-03-16T07:46:30.762Z,5090
2019-03-16T07:50:00.686Z,4842
2019-03-16T07:53:31.044Z,4995
2019-03-16T07:56:59.349Z,4737
2019-03-16T08:00:27.809Z,5005
2019-03-16T08:03:56.285Z,4300
2019-03-16T08:07:24.725Z,4109
2019-03-16T08:10:53.097Z,5770
2019-03-16T08:14:21.473Z,4203
2019-03-16T08:17:50.860Z,4103
2019-03-16T08:21:19.786Z,4583
2019-03-16T08:24:48.318Z,3730
2019-03-16T08:28:16.743Z,3682
2019-03-16T08:31:46.093Z,4496
2019-03-16T08:35:14.482Z,4772
2019-03-16T08:38:42.838Z,3855
2019-03-16T08:47:51.248Z,6485
2019-03-16T08:51:57.422Z,4216
2019-03-16T08:55:26.574Z,5315
2019-03-16T08:58:54.820Z,4418
2019-03-16T09:02:22.899Z,3947
2019-03-16T09:06:10.534Z,5372
2019-03-16T09:09:38.591Z,5534
2019-03-16T09:13:10.672Z,4999
2019-03-16T09:17:38.325Z,4276
2019-03-16T09:21:06.215Z,4648
2019-03-16T09:24:34.062Z,4149
2019-03-16T09:28:02.510Z,4169
2019-03-16T09:31:31.356Z,4457
2019-03-16T09:34:59.250Z,5666
2019-03-16T09:38:27.253Z,7090
2019-03-16T09:41:55.876Z,7624
2019-03-16T09:45:24.408Z,7920
2019-03-16T09:48:52.323Z,7540
2019-03-16T09:52:20.175Z,10280
2019-03-16T09:55:48.080Z,10111
2019-03-16T09:59:16.062Z,11468
2019-03-16T10:02:43.859Z,11184
2019-03-16T10:06:11.886Z,10964
2019-03-16T10:09:39.919Z,11283
2019-03-16T10:13:08.471Z,11034
2019-03-16T10:16:36.355Z,13073
2019-03-16T10:20:04.973Z,11467
2019-03-16T10:23:32.895Z,11580
2019-03-16T10:27:00.791Z,11321
2019-03-16T10:30:28.706Z,10596
2019-03-16T10:33:56.697Z,12147
2019-03-16T10:37:24.521Z,12351
2019-03-16T10:40:52.379Z,12255
2019-03-16T10:44:21.893Z,11148
2019-03-16T10:47:50.776Z,13412
2019-03-16T10:51:18.637Z,13273
2019-03-16T10:54:46.499Z,14854
2019-03-16T10:58:14.377Z,17007
2019-03-16T11:01:42.225Z,13895
2019-03-16T11:05:10.076Z,11980
2019-03-16T11:08:38.014Z,14938
2019-03-16T11:12:06.424Z,13482
2019-03-16T11:15:34.275Z,12017
2019-03-16T11:19:02.143Z,10820
2019-03-16T11:22:30.027Z,12701
2019-03-16T11:25:57.874Z,10271
2019-03-16T11:29:26.768Z,15124
2019-03-16T11:32:55.588Z,17161
2019-03-16T11:36:24.900Z,12342
2019-03-16T11:39:59.881Z,9667
2019-03-16T11:43:27.723Z,12244
2019-03-16T11:46:55.631Z,10425
2019-03-16T11:50:23.483Z,21864
2019-03-16T11:53:52.323Z,9972
2019-03-16T11:57:20.223Z,9576
2019-03-16T12:00:48.092Z,9383
2019-03-16T12:04:16.945Z,15499
2019-03-16T12:07:44.805Z,12592
2019-03-16T12:11:12.649Z,15970
2019-03-16T12:14:40.587Z,13764
2019-03-16T12:18:08.475Z,12224
2019-03-16T12:21:37.326Z,27904
2019-03-16T12:25:05.209Z,17489
2019-03-16T12:28:33.092Z,9563
2019-03-16T12:32:00.928Z,28904
2019-03-16T12:35:28.787Z,18369
2019-03-16T12:38:56.648Z,14213
2019-03-16T12:42:25.159Z,10715
2019-03-16T12:45:53.017Z,10269
2019-03-16T12:49:20.868Z,12347
2019-03-16T12:52:48.722Z,9847
2019-03-16T12:56:16.557Z,11069
2019-03-16T12:59:47.481Z,9898
2019-03-16T13:03:17.007Z,8716
2019-03-16T13:06:45.220Z,8721
2019-03-16T13:10:13.054Z,8951
2019-03-16T13:13:40.901Z,8659
2019-03-16T13:17:08.760Z,7003
2019-03-16T13:20:36.600Z,6131
2019-03-16T13:24:05.445Z,4990
2019-03-16T13:27:33.311Z,3861
2019-03-16T13:31:01.235Z,4776
2019-03-16T13:34:30.938Z,4958
2019-03-16T13:37:58.807Z,4943
2019-03-16T13:41:26.777Z,5025
2019-03-16T13:44:54.628Z,5227
2019-03-16T13:48:22.484Z,4819
2019-03-16T13:51:50.380Z,4486
2019-03-16T13:55:18.219Z,4356
2019-03-16T13:58:46.094Z,3854
2019-03-16T14:02:14.014Z,3591
2019-03-16T14:05:41.993Z,3183
2019-03-16T14:09:11.889Z,3649
2019-03-16T14:12:39.824Z,3493
2019-03-16T14:16:07.664Z,3182
2019-03-16T14:19:37.225Z,2899
2019-03-16T14:23:05.075Z,2774
2019-03-16T14:26:32.925Z,2550
2019-03-16T14:30:00.852Z,2275
2019-03-16T14:33:28.707Z,2061
2019-03-16T14:36:59.552Z,1966
2019-03-16T14:40:28.470Z,2082
2019-03-16T14:43:57.471Z,2060
2019-03-16T14:47:25.513Z,1835
2019-03-16T14:50:53.388Z,1697
2019-03-16T14:54:21.264Z,1559
2019-03-16T14:57:49.728Z,1414
2019-03-16T15:01:18.395Z,1239
2019-03-16T15:04:46.253Z,1184
2019-03-16T15:08:14.110Z,1272
2019-03-16T15:11:42.737Z,1356
2019-03-16T15:15:10.617Z,1399
2019-03-16T15:18:38.466Z,1452
2019-03-16T15:22:07.969Z,1436
2019-03-16T15:25:38.859Z,1449
2019-03-16T15:29:06.795Z,1377
2019-03-16T15:32:34.632Z,1451
2019-03-16T15:36:02.487Z,1327
2019-03-16T15:39:30.360Z,1190
2019-03-16T15:42:58.331Z,953
2019-03-16T15:46:26.100Z,852
2019-03-16T15:49:53.951Z,1136
2019-03-16T15:53:22.796Z,1423
2019-03-16T15:56:50.632Z,1323
2019-03-16T16:00:19.517Z,1278
2019-03-16T16:03:47.382Z,1156
2019-03-16T16:07:15.240Z,1069
2019-03-16T16:10:44.065Z,1043
2019-03-16T16:14:12.911Z,906
2019-03-16T16:17:40.769Z,833
2019-03-16T16:21:09.654Z,714
2019-03-16T16:24:37.495Z,641
2019-03-16T16:28:05.352Z,609
2019-03-16T16:31:33.201Z,533
2019-03-16T16:35:01.042Z,535
2019-03-16T16:38:28.900Z,459
2019-03-16T16:41:56.759Z,349
2019-03-16T16:45:24.600Z,260
2019-03-16T16:48:53.450Z,167
2019-03-16T16:52:22.317Z,130
2019-03-16T16:55:50.172Z,125
2019-03-16T16:59:18.031Z,127
2019-03-16T17:02:46.418Z,98
2019-03-16T17:06:14.721Z,80
2019-03-16T17:09:42.566Z,57
2019-03-16T17:13:10.533Z,40
2019-03-16T17:16:39.426Z,27
2019-03-16T17:20:07.278Z,20
2019-03-16T17:23:35.886Z,13
2019-03-16T17:27:03.738Z,7
2019-03-16T17:30:31.588Z,5
2019-03-16T17:33:59.432Z,3
2019-03-16T17:37:27.278Z,1
2019-03-16T17:40:56.123Z,1
2019-03-16T17:44:24.967Z,0
2019-03-16T17:47:52.847Z,0
2019-03-16T17:51:20.765Z,0
2019-03-16T17:54:49.773Z,0
2019-03-16T17:58:17.668Z,0
2019-03-16T18:01:54.414Z,0
2019-03-16T18:05:19.328Z,0
2019-03-16T18:08:47.191Z,0
2019-03-16T18:12:15.026Z,0
2019-03-16T18:15:42.878Z,0
2019-03-16T18:19:10.725Z,0
2019-03-16T18:22:38.564Z,0
2019-03-16T18:26:06.478Z,0
2019-03-16T18:29:34.356Z,0
2019-03-16T18:33:02.277Z,0
2019-03-16T18:36:30.113Z,0
2019-03-16T18:39:57.973Z,0
2019-03-16T18:43:25.945Z,0
2019-03-16T18:46:53.776Z,0
2019-03-16T18:50:21.655Z,0
2019-03-16T18:53:49.574Z,0
2019-03-16T18:57:24.278Z,0
2019-03-16T19:00:52.203Z,0
2019-03-16T19:04:20.056Z,0
2019-03-16T19:07:47.902Z,0
2019-03-16T19:11:15.805Z,0
2019-03-16T19:14:43.648Z,0
2019-03-16T19:18:11.520Z,0
2019-03-16T19:21:40.356Z,0
2019-03-16T19:25:08.205Z,0
2019-03-16T19:28:36.065Z,0
2019-03-16T19:32:03.919Z,0
2019-03-16T19:35:31.784Z,0
2019-03-16T19:38:59.639Z,0
2019-03-16T19:42:27.565Z,0
2019-03-16T19:46:51.589Z,0
2019-03-16T19:50:19.457Z,0
2019-03-16T19:53:47.285Z,0
2019-03-16T19:57:17.165Z,0
2019-03-16T20:00:45.009Z,0
2019-03-16T20:04:13.273Z,0
2019-03-16T20:07:42.895Z,0
2019-03-16T20:11:10.768Z,0
2019-03-16T20:14:41.111Z,0
2019-03-16T20:18:08.938Z,0
2019-03-16T20:21:51.577Z,0
2019-03-16T20:31:10.260Z,0
2019-03-16T20:34:38.422Z,0
2019-03-16T20:38:06.278Z,0
2019-03-16T20:41:37.117Z,0
2019-03-16T20:45:05.012Z,0
2019-03-16T20:48:32.852Z,0
2019-03-16T20:52:01.450Z,0
2019-03-16T20:55:29.443Z,0
2019-03-16T20:58:59.474Z,0
2019-03-16T21:02:27.473Z,0
2019-03-16T21:05:55.358Z,0
2019-03-16T21:09:23.849Z,0
2019-03-16T21:12:52.640Z,0
2019-03-16T21:16:20.554Z,0
2019-03-16T21:19:48.460Z,0
2019-03-16T21:23:16.322Z,0
2019-03-16T21:26:52.170Z,0
2019-03-16T21:30:18.094Z,0
2019-03-16T21:33:47.013Z,0
2019-03-16T21:37:33.289Z,0
2019-03-16T21:41:01.145Z,0
2019-03-16T21:44:28.974Z,0
2019-03-16T21:53:37.951Z,0
2019-03-16T21:57:05.863Z,0
2019-03-16T22:00:33.662Z,0
2019-03-16T22:04:01.501Z,0
2019-03-16T22:07:30.348Z,0
2019-03-16T22:10:58.198Z,0
2019-03-16T22:14:26.055Z,0
2019-03-16T22:17:53.891Z,0
2019-03-16T22:21:21.742Z,0
2019-03-16T22:24:50.617Z,0
2019-03-16T22:28:19.443Z,0
2019-03-16T22:31:47.317Z,0
2019-03-16T22:35:15.168Z,0
2019-03-16T22:38:42.978Z,0
2019-03-16T22:42:10.831Z,0
2019-03-16T22:45:38.726Z,0
2019-03-16T22:49:06.576Z,0
2019-03-16T22:52:35.064Z,0
2019-03-16T22:56:02.937Z,0
